sensor_id;sensor_type;location;lat;lon;timestamp;P1;durP1;ratioP1;P2;durP2;ratioP2
48550;SDS011;34397;51.176;6.738;2022-08-19T00:01:08;9.55;;;7.07;;
48550;SDS011;34397;51.176;6.738;2022-08-19T00:03:39;10.63;;;7.18;;
48550;SDS011;34397;51.176;6.738;2022-08-19T00:06:13;11.48;;;7.03;;
48550;SDS011;34397;51.176;6.738;2022-08-19T00:08:45;9.93;;;7.68;;
48550;SDS011;34397;51.176;6.738;2022-08-19T00:11:17;9.07;;;7.35;;
48550;SDS011;34397;51.176;6.738;2022-08-19T00:13:49;9.73;;;7.30;;
48550;SDS011;34397;51.176;6.738;2022-08-19T00:16:21;11.00;;;7.60;;
48550;SDS011;34397;51.176;6.738;2022-08-19T00:18:54;12.32;;;7.20;;
48550;SDS011;34397;51.176;6.738;2022-08-19T00:21:27;10.07;;;7.10;;
48550;SDS011;34397;51.176;6.738;2022-08-19T00:24:00;9.18;;;6.88;;
48550;SDS011;34397;51.176;6.738;2022-08-19T00:26:32;8.43;;;6.95;;
48550;SDS011;34397;51.176;6.738;2022-08-19T00:29:04;9.25;;;6.82;;
48550;SDS011;34397;51.176;6.738;2022-08-19T00:31:39;9.43;;;7.28;;
48550;SDS011;34397;51.176;6.738;2022-08-19T00:34:11;9.63;;;7.15;;
48550;SDS011;34397;51.176;6.738;2022-08-19T00:39:18;10.82;;;7.32;;
48550;SDS011;34397;51.176;6.738;2022-08-19T00:41:50;8.77;;;7.28;;
48550;SDS011;34397;51.176;6.738;2022-08-19T00:44:24;10.70;;;8.07;;
48550;SDS011;34397;51.176;6.738;2022-08-19T00:46:58;9.25;;;7.40;;
48550;SDS011;34397;51.176;6.738;2022-08-19T00:49:31;9.32;;;7.93;;
48550;SDS011;34397;51.176;6.738;2022-08-19T00:52:09;10.07;;;7.97;;
48550;SDS011;34397;51.176;6.738;2022-08-19T00:54:45;11.20;;;8.20;;
48550;SDS011;34397;51.176;6.738;2022-08-19T00:57:20;9.70;;;8.00;;
48550;SDS011;34397;51.176;6.738;2022-08-19T00:59:58;10.45;;;8.15;;
48550;SDS011;34397;51.176;6.738;2022-08-19T01:02:32;10.63;;;7.95;;
48550;SDS011;34397;51.176;6.738;2022-08-19T01:05:06;13.82;;;9.13;;
48550;SDS011;34397;51.176;6.738;2022-08-19T01:07:44;12.85;;;8.98;;
48550;SDS011;34397;51.176;6.738;2022-08-19T01:10:17;10.65;;;8.25;;
48550;SDS011;34397;51.176;6.738;2022-08-19T01:12:53;10.60;;;8.30;;
48550;SDS011;34397;51.176;6.738;2022-08-19T01:15:28;10.52;;;8.13;;
48550;SDS011;34397;51.176;6.738;2022-08-19T01:18:08;10.00;;;8.07;;
48550;SDS011;34397;51.176;6.738;2022-08-19T01:20:43;9.63;;;8.25;;
48550;SDS011;34397;51.176;6.738;2022-08-19T01:23:16;11.43;;;8.02;;
48550;SDS011;34397;51.176;6.738;2022-08-19T01:25:49;12.35;;;9.38;;
48550;SDS011;34397;51.176;6.738;2022-08-19T01:28:25;14.65;;;11.20;;
48550;SDS011;34397;51.176;6.738;2022-08-19T01:30:58;11.32;;;9.48;;
48550;SDS011;34397;51.176;6.738;2022-08-19T01:33:30;12.20;;;9.38;;
48550;SDS011;34397;51.176;6.738;2022-08-19T01:36:06;11.52;;;8.98;;
48550;SDS011;34397;51.176;6.738;2022-08-19T01:38:42;11.45;;;8.95;;
48550;SDS011;34397;51.176;6.738;2022-08-19T01:41:16;13.30;;;10.50;;
48550;SDS011;34397;51.176;6.738;2022-08-19T01:46:21;12.35;;;10.45;;
48550;SDS011;34397;51.176;6.738;2022-08-19T01:48:53;12.50;;;10.00;;
48550;SDS011;34397;51.176;6.738;2022-08-19T01:51:25;12.90;;;11.00;;
48550;SDS011;34397;51.176;6.738;2022-08-19T01:53:59;13.75;;;9.95;;
48550;SDS011;34397;51.176;6.738;2022-08-19T01:56:31;13.35;;;10.40;;
48550;SDS011;34397;51.176;6.738;2022-08-19T01:59:03;13.10;;;10.45;;
48550;SDS011;34397;51.176;6.738;2022-08-19T02:01:44;12.80;;;10.43;;
48550;SDS011;34397;51.176;6.738;2022-08-19T02:04:16;12.67;;;10.40;;
48550;SDS011;34397;51.176;6.738;2022-08-19T02:06:48;14.75;;;11.07;;
48550;SDS011;34397;51.176;6.738;2022-08-19T02:09:21;13.45;;;10.63;;
48550;SDS011;34397;51.176;6.738;2022-08-19T02:11:53;14.35;;;11.20;;
48550;SDS011;34397;51.176;6.738;2022-08-19T02:14:25;12.30;;;10.27;;
48550;SDS011;34397;51.176;6.738;2022-08-19T02:16:57;13.73;;;10.88;;
48550;SDS011;34397;51.176;6.738;2022-08-19T02:19:29;13.75;;;10.95;;
48550;SDS011;34397;51.176;6.738;2022-08-19T02:22:02;13.65;;;10.95;;
48550;SDS011;34397;51.176;6.738;2022-08-19T02:27:08;12.82;;;10.40;;
48550;SDS011;34397;51.176;6.738;2022-08-19T02:29:40;14.13;;;10.00;;
48550;SDS011;34397;51.176;6.738;2022-08-19T02:32:12;11.27;;;9.13;;
48550;SDS011;34397;51.176;6.738;2022-08-19T02:34:44;15.65;;;10.77;;
48550;SDS011;34397;51.176;6.738;2022-08-19T02:37:16;13.23;;;10.32;;
48550;SDS011;34397;51.176;6.738;2022-08-19T02:40:08;11.82;;;9.80;;
48550;SDS011;34397;51.176;6.738;2022-08-19T02:42:40;14.32;;;10.57;;
48550;SDS011;34397;51.176;6.738;2022-08-19T02:45:12;11.98;;;9.68;;
48550;SDS011;34397;51.176;6.738;2022-08-19T02:47:45;13.00;;;10.35;;
48550;SDS011;34397;51.176;6.738;2022-08-19T02:50:17;13.05;;;10.35;;
48550;SDS011;34397;51.176;6.738;2022-08-19T02:52:49;16.23;;;11.07;;
48550;SDS011;34397;51.176;6.738;2022-08-19T02:55:22;12.82;;;10.27;;
48550;SDS011;34397;51.176;6.738;2022-08-19T02:57:54;14.00;;;11.13;;
48550;SDS011;34397;51.176;6.738;2022-08-19T03:00:27;15.43;;;12.35;;
48550;SDS011;34397;51.176;6.738;2022-08-19T03:02:58;14.68;;;12.63;;
48550;SDS011;34397;51.176;6.738;2022-08-19T03:05:31;16.17;;;12.20;;
48550;SDS011;34397;51.176;6.738;2022-08-19T03:08:02;14.70;;;12.02;;
48550;SDS011;34397;51.176;6.738;2022-08-19T03:10:40;14.57;;;11.70;;
48550;SDS011;34397;51.176;6.738;2022-08-19T03:13:17;19.52;;;12.43;;
48550;SDS011;34397;51.176;6.738;2022-08-19T03:15:49;14.45;;;11.70;;
48550;SDS011;34397;51.176;6.738;2022-08-19T03:18:20;16.80;;;12.50;;
48550;SDS011;34397;51.176;6.738;2022-08-19T03:20:52;16.90;;;13.18;;
48550;SDS011;34397;51.176;6.738;2022-08-19T03:23:24;15.98;;;12.73;;
48550;SDS011;34397;51.176;6.738;2022-08-19T03:25:57;17.55;;;13.45;;
48550;SDS011;34397;51.176;6.738;2022-08-19T03:28:30;17.25;;;13.60;;
48550;SDS011;34397;51.176;6.738;2022-08-19T03:31:04;19.15;;;14.65;;
48550;SDS011;34397;51.176;6.738;2022-08-19T03:33:40;18.75;;;14.43;;
48550;SDS011;34397;51.176;6.738;2022-08-19T03:36:13;21.25;;;16.80;;
48550;SDS011;34397;51.176;6.738;2022-08-19T03:38:51;17.73;;;13.93;;
48550;SDS011;34397;51.176;6.738;2022-08-19T03:41:28;18.52;;;14.65;;
48550;SDS011;34397;51.176;6.738;2022-08-19T03:44:02;19.70;;;15.63;;
48550;SDS011;34397;51.176;6.738;2022-08-19T03:46:35;22.83;;;17.20;;
48550;SDS011;34397;51.176;6.738;2022-08-19T03:49:07;20.30;;;15.57;;
48550;SDS011;34397;51.176;6.738;2022-08-19T03:51:40;19.95;;;15.52;;
48550;SDS011;34397;51.176;6.738;2022-08-19T03:54:14;22.77;;;16.45;;
48550;SDS011;34397;51.176;6.738;2022-08-19T03:56:50;21.48;;;15.95;;
48550;SDS011;34397;51.176;6.738;2022-08-19T03:59:25;21.45;;;17.38;;
48550;SDS011;34397;51.176;6.738;2022-08-19T04:02:00;21.08;;;17.08;;
48550;SDS011;34397;51.176;6.738;2022-08-19T04:04:39;20.73;;;17.02;;
48550;SDS011;34397;51.176;6.738;2022-08-19T04:07:14;20.55;;;16.50;;
48550;SDS011;34397;51.176;6.738;2022-08-19T04:09:48;19.13;;;15.70;;
48550;SDS011;34397;51.176;6.738;2022-08-19T04:12:23;22.48;;;17.83;;
48550;SDS011;34397;51.176;6.738;2022-08-19T04:17:26;19.85;;;15.85;;
48550;SDS011;34397;51.176;6.738;2022-08-19T04:19:58;22.77;;;16.80;;
48550;SDS011;34397;51.176;6.738;2022-08-19T04:22:31;22.38;;;17.75;;
48550;SDS011;34397;51.176;6.738;2022-08-19T04:25:03;22.83;;;18.10;;
48550;SDS011;34397;51.176;6.738;2022-08-19T04:27:36;22.25;;;17.05;;
48550;SDS011;34397;51.176;6.738;2022-08-19T04:32:41;22.23;;;18.60;;
48550;SDS011;34397;51.176;6.738;2022-08-19T04:35:13;21.35;;;17.33;;
48550;SDS011;34397;51.176;6.738;2022-08-19T04:37:45;20.92;;;16.35;;
48550;SDS011;34397;51.176;6.738;2022-08-19T04:40:17;22.80;;;17.60;;
48550;SDS011;34397;51.176;6.738;2022-08-19T04:43:14;20.30;;;15.90;;
48550;SDS011;34397;51.176;6.738;2022-08-19T04:45:46;22.13;;;17.27;;
48550;SDS011;34397;51.176;6.738;2022-08-19T04:48:18;22.98;;;16.98;;
48550;SDS011;34397;51.176;6.738;2022-08-19T04:50:56;20.48;;;15.80;;
48550;SDS011;34397;51.176;6.738;2022-08-19T04:53:30;21.48;;;16.92;;
48550;SDS011;34397;51.176;6.738;2022-08-19T04:56:04;24.40;;;16.80;;
48550;SDS011;34397;51.176;6.738;2022-08-19T04:58:40;19.55;;;16.30;;
48550;SDS011;34397;51.176;6.738;2022-08-19T05:01:16;23.92;;;18.17;;
48550;SDS011;34397;51.176;6.738;2022-08-19T05:03:50;23.38;;;17.27;;
48550;SDS011;34397;51.176;6.738;2022-08-19T05:06:23;23.33;;;17.25;;
48550;SDS011;34397;51.176;6.738;2022-08-19T05:08:55;23.27;;;17.52;;
48550;SDS011;34397;51.176;6.738;2022-08-19T05:11:28;24.45;;;19.25;;
48550;SDS011;34397;51.176;6.738;2022-08-19T05:14:04;25.00;;;19.98;;
48550;SDS011;34397;51.176;6.738;2022-08-19T05:16:36;25.13;;;19.70;;
48550;SDS011;34397;51.176;6.738;2022-08-19T05:19:08;27.10;;;20.73;;
48550;SDS011;34397;51.176;6.738;2022-08-19T05:21:58;25.60;;;20.13;;
48550;SDS011;34397;51.176;6.738;2022-08-19T05:24:48;27.73;;;21.63;;
48550;SDS011;34397;51.176;6.738;2022-08-19T05:27:20;30.13;;;23.50;;
48550;SDS011;34397;51.176;6.738;2022-08-19T05:29:53;27.88;;;21.88;;
48550;SDS011;34397;51.176;6.738;2022-08-19T05:32:25;29.52;;;22.63;;
48550;SDS011;34397;51.176;6.738;2022-08-19T05:34:57;29.45;;;22.45;;
48550;SDS011;34397;51.176;6.738;2022-08-19T05:37:29;28.75;;;22.45;;
48550;SDS011;34397;51.176;6.738;2022-08-19T05:40:01;29.15;;;24.00;;
48550;SDS011;34397;51.176;6.738;2022-08-19T05:42:34;33.85;;;25.83;;
48550;SDS011;34397;51.176;6.738;2022-08-19T05:45:08;32.78;;;25.05;;
48550;SDS011;34397;51.176;6.738;2022-08-19T05:47:41;32.95;;;26.33;;
48550;SDS011;34397;51.176;6.738;2022-08-19T05:50:15;34.53;;;25.65;;
48550;SDS011;34397;51.176;6.738;2022-08-19T05:52:47;29.13;;;24.63;;
48550;SDS011;34397;51.176;6.738;2022-08-19T05:55:19;35.85;;;26.50;;
48550;SDS011;34397;51.176;6.738;2022-08-19T05:57:52;32.55;;;25.48;;
48550;SDS011;34397;51.176;6.738;2022-08-19T06:00:25;31.73;;;25.25;;
48550;SDS011;34397;51.176;6.738;2022-08-19T06:03:01;31.13;;;25.10;;
48550;SDS011;34397;51.176;6.738;2022-08-19T06:05:34;32.70;;;25.98;;
48550;SDS011;34397;51.176;6.738;2022-08-19T06:08:07;32.42;;;24.95;;
48550;SDS011;34397;51.176;6.738;2022-08-19T06:10:40;31.00;;;23.20;;
48550;SDS011;34397;51.176;6.738;2022-08-19T06:13:13;33.30;;;25.45;;
48550;SDS011;34397;51.176;6.738;2022-08-19T06:15:47;35.40;;;25.33;;
48550;SDS011;34397;51.176;6.738;2022-08-19T06:18:22;32.22;;;25.67;;
48550;SDS011;34397;51.176;6.738;2022-08-19T06:20:54;33.88;;;26.15;;
48550;SDS011;34397;51.176;6.738;2022-08-19T06:23:34;35.63;;;24.65;;
48550;SDS011;34397;51.176;6.738;2022-08-19T06:26:10;33.90;;;24.52;;
48550;SDS011;34397;51.176;6.738;2022-08-19T06:28:45;32.78;;;24.50;;
48550;SDS011;34397;51.176;6.738;2022-08-19T06:31:26;35.78;;;26.05;;
48550;SDS011;34397;51.176;6.738;2022-08-19T06:33:59;32.05;;;24.88;;
48550;SDS011;34397;51.176;6.738;2022-08-19T06:36:34;31.65;;;25.05;;
48550;SDS011;34397;51.176;6.738;2022-08-19T06:39:09;31.80;;;24.15;;
48550;SDS011;34397;51.176;6.738;2022-08-19T06:41:44;35.00;;;25.67;;
48550;SDS011;34397;51.176;6.738;2022-08-19T06:44:19;31.33;;;23.27;;
48550;SDS011;34397;51.176;6.738;2022-08-19T06:46:56;30.10;;;24.13;;
48550;SDS011;34397;51.176;6.738;2022-08-19T06:49:28;32.05;;;24.63;;
48550;SDS011;34397;51.176;6.738;2022-08-19T06:52:00;31.30;;;25.10;;
48550;SDS011;34397;51.176;6.738;2022-08-19T06:54:33;30.95;;;24.30;;
48550;SDS011;34397;51.176;6.738;2022-08-19T06:57:05;31.05;;;23.35;;
48550;SDS011;34397;51.176;6.738;2022-08-19T06:59:39;34.63;;;24.48;;
48550;SDS011;34397;51.176;6.738;2022-08-19T07:02:12;33.30;;;24.25;;
48550;SDS011;34397;51.176;6.738;2022-08-19T07:04:44;31.00;;;22.45;;
48550;SDS011;34397;51.176;6.738;2022-08-19T07:07:16;35.75;;;23.92;;
48550;SDS011;34397;51.176;6.738;2022-08-19T07:09:49;32.25;;;23.80;;
48550;SDS011;34397;51.176;6.738;2022-08-19T07:12:22;31.77;;;23.70;;
48550;SDS011;34397;51.176;6.738;2022-08-19T07:14:54;32.33;;;23.05;;
48550;SDS011;34397;51.176;6.738;2022-08-19T07:17:28;29.83;;;20.92;;
48550;SDS011;34397;51.176;6.738;2022-08-19T07:20:00;32.20;;;22.80;;
48550;SDS011;34397;51.176;6.738;2022-08-19T07:22:32;31.27;;;23.60;;
48550;SDS011;34397;51.176;6.738;2022-08-19T07:25:05;28.67;;;21.73;;
48550;SDS011;34397;51.176;6.738;2022-08-19T07:27:38;30.52;;;23.15;;
48550;SDS011;34397;51.176;6.738;2022-08-19T07:30:10;27.73;;;21.90;;
48550;SDS011;34397;51.176;6.738;2022-08-19T07:32:44;32.88;;;24.58;;
48550;SDS011;34397;51.176;6.738;2022-08-19T07:35:16;36.58;;;29.50;;
48550;SDS011;34397;51.176;6.738;2022-08-19T07:37:50;33.17;;;25.83;;
48550;SDS011;34397;51.176;6.738;2022-08-19T07:40:22;29.00;;;20.92;;
48550;SDS011;34397;51.176;6.738;2022-08-19T07:42:54;26.73;;;19.73;;
48550;SDS011;34397;51.176;6.738;2022-08-19T07:45:26;31.10;;;24.52;;
48550;SDS011;34397;51.176;6.738;2022-08-19T07:48:00;25.50;;;20.05;;
48550;SDS011;34397;51.176;6.738;2022-08-19T07:50:33;25.42;;;18.70;;
48550;SDS011;34397;51.176;6.738;2022-08-19T07:53:06;25.02;;;18.52;;
48550;SDS011;34397;51.176;6.738;2022-08-19T07:55:37;23.85;;;18.15;;
48550;SDS011;34397;51.176;6.738;2022-08-19T07:58:10;22.75;;;16.92;;
48550;SDS011;34397;51.176;6.738;2022-08-19T08:00:44;24.88;;;18.77;;
48550;SDS011;34397;51.176;6.738;2022-08-19T08:03:21;27.63;;;20.33;;
48550;SDS011;34397;51.176;6.738;2022-08-19T08:06:14;28.35;;;17.67;;
48550;SDS011;34397;51.176;6.738;2022-08-19T08:09:05;27.83;;;18.85;;
48550;SDS011;34397;51.176;6.738;2022-08-19T08:11:48;30.70;;;22.10;;
48550;SDS011;34397;51.176;6.738;2022-08-19T08:14:23;26.45;;;20.88;;
48550;SDS011;34397;51.176;6.738;2022-08-19T08:16:58;34.28;;;24.08;;
48550;SDS011;34397;51.176;6.738;2022-08-19T08:19:32;38.92;;;27.88;;
48550;SDS011;34397;51.176;6.738;2022-08-19T08:22:04;34.90;;;23.88;;
48550;SDS011;34397;51.176;6.738;2022-08-19T08:24:36;38.67;;;27.92;;
48550;SDS011;34397;51.176;6.738;2022-08-19T08:27:08;32.70;;;25.17;;
48550;SDS011;34397;51.176;6.738;2022-08-19T08:29:40;34.90;;;25.48;;
48550;SDS011;34397;51.176;6.738;2022-08-19T08:32:14;33.33;;;24.23;;
48550;SDS011;34397;51.176;6.738;2022-08-19T08:34:47;30.98;;;21.90;;
48550;SDS011;34397;51.176;6.738;2022-08-19T08:37:19;33.08;;;25.60;;
48550;SDS011;34397;51.176;6.738;2022-08-19T08:39:52;32.00;;;24.88;;
48550;SDS011;34397;51.176;6.738;2022-08-19T08:42:25;33.58;;;24.85;;
48550;SDS011;34397;51.176;6.738;2022-08-19T08:45:03;29.63;;;23.52;;
48550;SDS011;34397;51.176;6.738;2022-08-19T08:47:47;31.65;;;23.10;;
48550;SDS011;34397;51.176;6.738;2022-08-19T08:50:24;29.50;;;21.90;;
48550;SDS011;34397;51.176;6.738;2022-08-19T08:53:01;34.22;;;24.88;;
48550;SDS011;34397;51.176;6.738;2022-08-19T08:55:36;31.55;;;23.85;;
48550;SDS011;34397;51.176;6.738;2022-08-19T08:58:12;30.92;;;21.92;;
48550;SDS011;34397;51.176;6.738;2022-08-19T09:00:49;26.13;;;18.77;;
48550;SDS011;34397;51.176;6.738;2022-08-19T09:03:21;24.17;;;18.20;;
48550;SDS011;34397;51.176;6.738;2022-08-19T09:06:00;23.60;;;17.70;;
48550;SDS011;34397;51.176;6.738;2022-08-19T09:08:39;24.20;;;18.15;;
48550;SDS011;34397;51.176;6.738;2022-08-19T09:11:19;25.85;;;17.55;;
48550;SDS011;34397;51.176;6.738;2022-08-19T09:14:05;22.50;;;15.90;;
48550;SDS011;34397;51.176;6.738;2022-08-19T09:16:45;27.70;;;20.77;;
48550;SDS011;34397;51.176;6.738;2022-08-19T09:19:18;27.83;;;17.23;;
48550;SDS011;34397;51.176;6.738;2022-08-19T09:21:51;23.05;;;17.50;;
48550;SDS011;34397;51.176;6.738;2022-08-19T09:24:23;22.33;;;15.98;;
48550;SDS011;34397;51.176;6.738;2022-08-19T09:26:55;20.93;;;16.60;;
48550;SDS011;34397;51.176;6.738;2022-08-19T09:29:27;19.67;;;15.82;;
48550;SDS011;34397;51.176;6.738;2022-08-19T09:31:59;20.75;;;15.93;;
48550;SDS011;34397;51.176;6.738;2022-08-19T09:34:31;22.98;;;15.63;;
48550;SDS011;34397;51.176;6.738;2022-08-19T09:37:04;17.98;;;13.30;;
48550;SDS011;34397;51.176;6.738;2022-08-19T09:39:37;18.08;;;13.23;;
48550;SDS011;34397;51.176;6.738;2022-08-19T09:42:10;15.93;;;11.30;;
48550;SDS011;34397;51.176;6.738;2022-08-19T09:44:43;19.90;;;14.38;;
48550;SDS011;34397;51.176;6.738;2022-08-19T09:47:15;19.73;;;12.60;;
48550;SDS011;34397;51.176;6.738;2022-08-19T09:49:47;15.63;;;12.32;;
48550;SDS011;34397;51.176;6.738;2022-08-19T09:52:21;17.80;;;13.40;;
48550;SDS011;34397;51.176;6.738;2022-08-19T09:54:53;15.45;;;12.13;;
48550;SDS011;34397;51.176;6.738;2022-08-19T09:57:25;17.92;;;11.82;;
48550;SDS011;34397;51.176;6.738;2022-08-19T09:59:57;12.10;;;8.50;;
48550;SDS011;34397;51.176;6.738;2022-08-19T10:02:29;14.23;;;10.80;;
48550;SDS011;34397;51.176;6.738;2022-08-19T10:05:00;14.63;;;12.30;;
48550;SDS011;34397;51.176;6.738;2022-08-19T10:07:51;15.30;;;12.02;;
48550;SDS011;34397;51.176;6.738;2022-08-19T10:10:24;13.40;;;11.50;;
48550;SDS011;34397;51.176;6.738;2022-08-19T10:12:56;14.10;;;11.10;;
48550;SDS011;34397;51.176;6.738;2022-08-19T10:15:28;13.80;;;11.37;;
48550;SDS011;34397;51.176;6.738;2022-08-19T10:18:00;17.25;;;12.07;;
48550;SDS011;34397;51.176;6.738;2022-08-19T10:20:32;11.88;;;10.15;;
48550;SDS011;34397;51.176;6.738;2022-08-19T10:23:06;12.55;;;9.63;;
48550;SDS011;34397;51.176;6.738;2022-08-19T10:25:38;13.73;;;10.38;;
48550;SDS011;34397;51.176;6.738;2022-08-19T10:28:10;14.32;;;11.23;;
48550;SDS011;34397;51.176;6.738;2022-08-19T10:30:42;15.13;;;11.55;;
48550;SDS011;34397;51.176;6.738;2022-08-19T10:33:14;14.20;;;9.70;;
48550;SDS011;34397;51.176;6.738;2022-08-19T10:35:46;12.02;;;8.57;;
48550;SDS011;34397;51.176;6.738;2022-08-19T15:35:58;6.53;;;4.18;;
48550;SDS011;34397;51.176;6.738;2022-08-19T15:40:36;8.40;;;4.90;;
48550;SDS011;34397;51.176;6.738;2022-08-19T15:48:46;17.63;;;5.90;;
48550;SDS011;34397;51.176;6.738;2022-08-19T15:51:24;9.75;;;4.07;;
48550;SDS011;34397;51.176;6.738;2022-08-19T15:53:59;10.25;;;4.15;;
48550;SDS011;34397;51.176;6.738;2022-08-19T15:56:32;5.38;;;3.40;;
48550;SDS011;34397;51.176;6.738;2022-08-19T15:59:23;6.85;;;3.22;;
48550;SDS011;34397;51.176;6.738;2022-08-19T16:02:12;8.20;;;2.88;;
48550;SDS011;34397;51.176;6.738;2022-08-19T16:05:05;9.07;;;3.58;;
48550;SDS011;34397;51.176;6.738;2022-08-19T16:07:58;9.35;;;3.58;;
48550;SDS011;34397;51.176;6.738;2022-08-19T16:10:31;6.68;;;2.95;;
48550;SDS011;34397;51.176;6.738;2022-08-19T16:13:03;4.40;;;2.28;;
48550;SDS011;34397;51.176;6.738;2022-08-19T16:18:13;4.82;;;2.67;;
48550;SDS011;34397;51.176;6.738;2022-08-19T16:20:46;7.70;;;2.83;;
48550;SDS011;34397;51.176;6.738;2022-08-19T16:23:18;9.82;;;4.05;;
48550;SDS011;34397;51.176;6.738;2022-08-19T16:25:53;12.43;;;3.75;;
48550;SDS011;34397;51.176;6.738;2022-08-19T16:28:26;8.43;;;2.72;;
48550;SDS011;34397;51.176;6.738;2022-08-19T16:30:58;9.98;;;3.00;;
48550;SDS011;34397;51.176;6.738;2022-08-19T16:33:30;5.88;;;2.58;;
48550;SDS011;34397;51.176;6.738;2022-08-19T16:36:04;6.93;;;2.60;;
48550;SDS011;34397;51.176;6.738;2022-08-19T16:38:37;4.70;;;2.75;;
48550;SDS011;34397;51.176;6.738;2022-08-19T16:41:10;6.22;;;2.80;;
48550;SDS011;34397;51.176;6.738;2022-08-19T16:43:44;5.47;;;3.13;;
48550;SDS011;34397;51.176;6.738;2022-08-19T16:46:18;5.90;;;2.92;;
48550;SDS011;34397;51.176;6.738;2022-08-19T16:48:50;5.18;;;2.90;;
48550;SDS011;34397;51.176;6.738;2022-08-19T16:51:24;6.40;;;2.90;;
48550;SDS011;34397;51.176;6.738;2022-08-19T16:53:56;6.57;;;3.35;;
48550;SDS011;34397;51.176;6.738;2022-08-19T16:56:28;5.10;;;3.00;;
48550;SDS011;34397;51.176;6.738;2022-08-19T16:59:01;4.60;;;2.50;;
48550;SDS011;34397;51.176;6.738;2022-08-19T17:01:37;4.75;;;2.72;;
48550;SDS011;34397;51.176;6.738;2022-08-19T17:04:10;4.43;;;2.70;;
48550;SDS011;34397;51.176;6.738;2022-08-19T17:09:16;5.97;;;3.10;;
48550;SDS011;34397;51.176;6.738;2022-08-19T17:11:48;6.30;;;2.70;;
48550;SDS011;34397;51.176;6.738;2022-08-19T17:14:22;4.95;;;2.67;;
48550;SDS011;34397;51.176;6.738;2022-08-19T17:16:55;7.68;;;2.60;;
48550;SDS011;34397;51.176;6.738;2022-08-19T17:19:27;4.33;;;2.53;;
48550;SDS011;34397;51.176;6.738;2022-08-19T17:22:00;6.70;;;2.70;;
48550;SDS011;34397;51.176;6.738;2022-08-19T17:24:32;6.93;;;3.03;;
48550;SDS011;34397;51.176;6.738;2022-08-19T17:27:07;4.75;;;2.70;;
48550;SDS011;34397;51.176;6.738;2022-08-19T17:29:41;6.25;;;2.80;;
48550;SDS011;34397;51.176;6.738;2022-08-19T17:32:16;8.77;;;3.25;;
48550;SDS011;34397;51.176;6.738;2022-08-19T17:34:49;7.10;;;3.08;;
48550;SDS011;34397;51.176;6.738;2022-08-19T17:37:24;7.75;;;3.00;;
48550;SDS011;34397;51.176;6.738;2022-08-19T17:39:57;5.72;;;2.70;;
48550;SDS011;34397;51.176;6.738;2022-08-19T17:42:32;4.10;;;2.50;;
48550;SDS011;34397;51.176;6.738;2022-08-19T17:45:05;4.30;;;2.65;;
48550;SDS011;34397;51.176;6.738;2022-08-19T17:47:40;5.20;;;2.58;;
48550;SDS011;34397;51.176;6.738;2022-08-19T17:50:15;4.90;;;2.42;;
48550;SDS011;34397;51.176;6.738;2022-08-19T17:52:49;8.68;;;2.60;;
48550;SDS011;34397;51.176;6.738;2022-08-19T17:55:21;6.55;;;2.20;;
48550;SDS011;34397;51.176;6.738;2022-08-19T17:57:54;3.92;;;2.40;;
48550;SDS011;34397;51.176;6.738;2022-08-19T18:00:27;5.03;;;2.63;;
48550;SDS011;34397;51.176;6.738;2022-08-19T18:02:59;4.85;;;2.42;;
48550;SDS011;34397;51.176;6.738;2022-08-19T18:05:40;5.15;;;2.40;;
48550;SDS011;34397;51.176;6.738;2022-08-19T18:08:15;4.32;;;2.53;;
48550;SDS011;34397;51.176;6.738;2022-08-19T18:10:47;4.60;;;2.38;;
48550;SDS011;34397;51.176;6.738;2022-08-19T18:15:55;7.68;;;2.65;;
48550;SDS011;34397;51.176;6.738;2022-08-19T18:18:27;4.72;;;2.50;;
48550;SDS011;34397;51.176;6.738;2022-08-19T18:21:03;5.40;;;2.00;;
48550;SDS011;34397;51.176;6.738;2022-08-19T18:23:37;5.43;;;2.70;;
48550;SDS011;34397;51.176;6.738;2022-08-19T18:26:09;5.05;;;2.60;;
48550;SDS011;34397;51.176;6.738;2022-08-19T18:28:41;6.65;;;2.60;;
48550;SDS011;34397;51.176;6.738;2022-08-19T18:31:13;5.10;;;2.43;;
48550;SDS011;34397;51.176;6.738;2022-08-19T18:33:45;5.82;;;2.20;;
48550;SDS011;34397;51.176;6.738;2022-08-19T18:36:21;3.67;;;2.15;;
48550;SDS011;34397;51.176;6.738;2022-08-19T18:38:54;4.83;;;2.33;;
48550;SDS011;34397;51.176;6.738;2022-08-19T18:41:44;5.80;;;2.67;;
48550;SDS011;34397;51.176;6.738;2022-08-19T18:44:34;4.88;;;2.30;;
48550;SDS011;34397;51.176;6.738;2022-08-19T18:47:24;5.15;;;2.75;;
48550;SDS011;34397;51.176;6.738;2022-08-19T18:50:14;5.85;;;2.65;;
48550;SDS011;34397;51.176;6.738;2022-08-19T18:52:46;5.53;;;2.57;;
48550;SDS011;34397;51.176;6.738;2022-08-19T18:55:19;5.30;;;2.60;;
48550;SDS011;34397;51.176;6.738;2022-08-19T18:57:52;6.50;;;2.42;;
48550;SDS011;34397;51.176;6.738;2022-08-19T19:00:24;6.28;;;2.50;;
48550;SDS011;34397;51.176;6.738;2022-08-19T19:02:56;6.73;;;3.17;;
48550;SDS011;34397;51.176;6.738;2022-08-19T19:05:28;5.30;;;2.77;;
48550;SDS011;34397;51.176;6.738;2022-08-19T19:08:00;5.47;;;2.60;;
48550;SDS011;34397;51.176;6.738;2022-08-19T19:10:37;4.05;;;2.55;;
48550;SDS011;34397;51.176;6.738;2022-08-19T19:13:11;6.75;;;2.60;;
48550;SDS011;34397;51.176;6.738;2022-08-19T19:15:48;6.65;;;2.65;;
48550;SDS011;34397;51.176;6.738;2022-08-19T19:18:20;5.13;;;2.80;;
48550;SDS011;34397;51.176;6.738;2022-08-19T19:20:52;4.37;;;2.53;;
48550;SDS011;34397;51.176;6.738;2022-08-19T19:23:24;5.43;;;2.70;;
48550;SDS011;34397;51.176;6.738;2022-08-19T19:25:58;4.95;;;2.40;;
48550;SDS011;34397;51.176;6.738;2022-08-19T19:28:30;4.40;;;2.50;;
48550;SDS011;34397;51.176;6.738;2022-08-19T19:31:03;4.67;;;2.60;;
48550;SDS011;34397;51.176;6.738;2022-08-19T19:36:07;4.35;;;2.20;;
48550;SDS011;34397;51.176;6.738;2022-08-19T19:38:39;3.80;;;2.27;;
48550;SDS011;34397;51.176;6.738;2022-08-19T19:41:16;5.90;;;2.45;;
48550;SDS011;34397;51.176;6.738;2022-08-19T19:43:52;5.28;;;2.50;;
48550;SDS011;34397;51.176;6.738;2022-08-19T19:46:27;3.72;;;2.10;;
48550;SDS011;34397;51.176;6.738;2022-08-19T19:49:00;4.78;;;2.25;;
48550;SDS011;34397;51.176;6.738;2022-08-19T19:51:35;4.95;;;2.70;;
48550;SDS011;34397;51.176;6.738;2022-08-19T19:54:08;3.63;;;2.15;;
48550;SDS011;34397;51.176;6.738;2022-08-19T19:56:44;5.18;;;2.65;;
48550;SDS011;34397;51.176;6.738;2022-08-19T19:59:19;4.93;;;2.40;;
48550;SDS011;34397;51.176;6.738;2022-08-19T20:01:51;4.07;;;2.30;;
48550;SDS011;34397;51.176;6.738;2022-08-19T20:04:24;6.90;;;2.55;;
48550;SDS011;34397;51.176;6.738;2022-08-19T20:06:56;4.53;;;2.05;;
48550;SDS011;34397;51.176;6.738;2022-08-19T20:09:28;5.45;;;2.15;;
48550;SDS011;34397;51.176;6.738;2022-08-19T20:12:00;3.05;;;1.70;;
48550;SDS011;34397;51.176;6.738;2022-08-19T20:14:32;3.88;;;1.90;;
48550;SDS011;34397;51.176;6.738;2022-08-19T20:17:05;2.88;;;1.58;;
48550;SDS011;34397;51.176;6.738;2022-08-19T20:19:37;4.25;;;1.65;;
48550;SDS011;34397;51.176;6.738;2022-08-19T20:22:09;2.83;;;1.52;;
48550;SDS011;34397;51.176;6.738;2022-08-19T20:24:42;3.03;;;1.50;;
48550;SDS011;34397;51.176;6.738;2022-08-19T20:27:16;2.95;;;1.50;;
48550;SDS011;34397;51.176;6.738;2022-08-19T20:29:48;3.50;;;1.60;;
48550;SDS011;34397;51.176;6.738;2022-08-19T20:32:20;2.38;;;1.40;;
48550;SDS011;34397;51.176;6.738;2022-08-19T20:34:52;2.63;;;1.30;;
48550;SDS011;34397;51.176;6.738;2022-08-19T20:37:24;2.30;;;1.30;;
48550;SDS011;34397;51.176;6.738;2022-08-19T20:39:57;2.40;;;1.35;;